Time;durP1;ratioP1;P1;durP2;ratioP2;P2;SDS_P1;SDS_P2;PMS_P1;PMS_P2;Temp;Humidity;BMP_temperature;BMP_pressure;BME280_temperature;BME280_humidity;BME280_pressure;Samples;Min_cycle;Max_cycle;Signal;HPM_P1;HPM_P2
2023/10/10 00:00:27;;;;;;;14.20;8.00;;;;;;;14.92;97.23;98677.75;4208115;28;20618;-87
2023/10/10 00:02:31;;;;;;;12.73;8.50;;;;;;;14.90;96.18;98684.94;4198120;28;21225;-87
2023/10/10 00:04:35;;;;;;;13.93;7.30;;;;;;;14.88;97.60;98678.09;4182820;28;20656;-88
2023/10/10 00:06:39;;;;;;;12.90;7.70;;;;;;;14.86;96.92;98680.84;4199719;28;20626;-87
2023/10/10 00:08:43;;;;;;;18.10;8.27;;;;;;;14.82;96.52;98687.28;4215222;28;20712;-87
2023/10/10 00:10:49;;;;;;;16.00;7.87;;;;;;;14.83;97.49;98688.97;4214831;27;20635;-87
2023/10/10 00:12:53;;;;;;;14.07;7.80;;;;;;;14.81;97.24;98685.63;4197689;28;20637;-87
2023/10/10 00:14:58;;;;;;;15.27;7.43;;;;;;;14.80;96.56;98688.38;4217798;28;20652;-87
2023/10/10 00:17:01;;;;;;;14.50;7.43;;;;;;;14.77;96.32;98689.41;4198164;28;21562;-87
2023/10/10 00:19:17;;;;;;;15.57;8.23;;;;;;;14.75;95.82;98696.59;4204145;28;21315;-88
2023/10/10 00:21:23;;;;;;;14.93;9.03;;;;;;;14.72;97.44;98691.56;4186888;28;20634;-88
2023/10/10 00:23:26;;;;;;;20.17;9.83;;;;;;;14.72;97.69;98693.38;4217183;28;21162;-87
2023/10/10 00:25:30;;;;;;;17.07;8.50;;;;;;;14.70;96.71;98688.22;4217829;28;21380;-87
2023/10/10 00:27:39;;;;;;;15.37;8.93;;;;;;;14.67;96.30;98691.09;4190083;28;20662;-87
2023/10/10 00:29:44;;;;;;;16.40;7.37;;;;;;;14.65;97.57;98689.50;4196132;28;20630;-87
2023/10/10 00:31:55;;;;;;;15.37;7.90;;;;;;;14.64;96.80;98680.81;4200014;28;20610;-87
2023/10/10 00:33:59;;;;;;;16.63;7.70;;;;;;;14.61;97.32;98682.81;4187777;28;21089;-87
2023/10/10 00:36:03;;;;;;;15.27;8.07;;;;;;;14.59;96.94;98681.28;4198386;28;20619;-88
2023/10/10 00:38:07;;;;;;;13.70;8.07;;;;;;;14.56;96.54;98679.69;4196947;28;21203;-87
2023/10/10 00:40:15;;;;;;;15.63;8.30;;;;;;;14.53;96.54;98679.09;4196350;28;21000;-87
2023/10/10 00:42:19;;;;;;;14.10;7.90;;;;;;;14.49;96.51;98681.09;4201028;28;21187;-87
2023/10/10 00:44:25;;;;;;;18.20;8.27;;;;;;;14.46;97.08;98683.13;4188896;28;21337;-87
2023/10/10 00:46:30;;;;;;;17.63;8.57;;;;;;;14.45;96.47;98678.81;4217620;28;20632;-87
2023/10/10 00:48:38;;;;;;;12.43;7.40;;;;;;;14.42;97.03;98682.53;4206970;28;20637;-87
2023/10/10 00:50:43;;;;;;;19.70;8.60;;;;;;;14.42;96.73;98679.06;4201380;28;20650;-87
2023/10/10 00:52:48;;;;;;;15.80;8.07;;;;;;;14.38;96.27;98675.81;4191803;28;21044;-87
2023/10/10 00:54:52;;;;;;;16.07;7.40;;;;;;;14.36;97.32;98675.09;4188374;28;20638;-87
2023/10/10 00:56:57;;;;;;;16.77;7.97;;;;;;;14.34;96.94;98681.41;4204828;28;20613;-87
2023/10/10 00:59:03;;;;;;;15.60;8.30;;;;;;;14.31;96.40;98673.75;4198848;28;21055;-87
2023/10/10 01:01:10;;;;;;;16.03;7.87;;;;;;;14.30;97.12;98678.19;4186651;28;20722;-87
2023/10/10 01:03:20;;;;;;;11.50;7.43;;;;;;;14.28;97.15;98671.34;4202647;28;20634;-87
2023/10/10 01:05:39;;;;;;;14.77;7.70;;;;;;;14.26;96.87;98671.47;4188241;28;20641;-87
2023/10/10 01:07:47;;;;;;;17.40;8.33;;;;;;;14.24;96.54;98678.63;4185806;28;20630;-87
2023/10/10 01:09:55;;;;;;;12.83;7.83;;;;;;;14.25;96.76;98668.97;4214218;28;20637;-87
2023/10/10 01:12:00;;;;;;;16.67;8.23;;;;;;;14.23;96.35;98678.75;4182036;28;20666;-87
2023/10/10 01:14:04;;;;;;;18.07;9.20;;;;;;;14.21;96.43;98680.66;4189643;28;20646;-87
2023/10/10 01:16:06;;;;;;;14.10;7.73;;;;;;;14.17;96.54;98666.06;4197270;28;20719;-87
2023/10/10 01:18:15;;;;;;;17.20;9.20;;;;;;;14.14;96.41;98661.03;4188943;28;20670;-87
2023/10/10 01:20:25;;;;;;;16.77;9.40;;;;;;;14.13;96.27;98669.84;4202740;28;20717;-87
2023/10/10 01:22:39;;;;;;;14.50;8.43;;;;;;;14.13;96.34;98666.41;4198634;28;20659;-87
2023/10/10 01:24:43;;;;;;;13.27;8.07;;;;;;;14.11;96.33;98668.31;4183057;28;20743;-87
2023/10/10 01:26:45;;;;;;;18.13;8.30;;;;;;;14.11;96.71;98666.50;4202517;28;20645;-88
2023/10/10 01:28:48;;;;;;;14.50;8.00;;;;;;;14.12;96.86;98657.72;4212257;28;21097;-87
2023/10/10 01:30:59;;;;;;;15.37;8.70;;;;;;;14.10;96.71;98658.75;4201740;28;20791;-87
2023/10/10 01:33:02;;;;;;;14.23;8.73;;;;;;;14.08;96.81;98653.63;4202983;28;20701;-87
2023/10/10 01:35:15;;;;;;;14.17;7.37;;;;;;;14.06;96.90;98657.28;4185557;28;20717;-87
2023/10/10 01:37:21;;;;;;;10.30;7.00;;;;;;;14.02;96.17;98651.41;4214424;28;20718;-88
2023/10/10 01:39:35;;;;;;;14.83;7.37;;;;;;;14.00;96.78;98648.06;4211839;28;20613;-87
2023/10/10 01:41:40;;;;;;;11.87;7.60;;;;;;;13.98;96.81;98650.00;4197077;28;20621;-87
2023/10/10 01:43:46;;;;;;;14.33;7.87;;;;;;;13.98;97.15;98646.50;4202790;28;20642;-87
2023/10/10 01:46:08;;;;;;;14.00;7.60;;;;;;;13.98;97.02;98647.38;4203895;28;21021;-87
2023/10/10 01:48:12;;;;;;;15.07;8.23;;;;;;;13.95;96.79;98647.59;4215152;28;20617;-87
2023/10/10 01:50:15;;;;;;;13.70;7.60;;;;;;;13.94;97.00;98642.44;4177627;28;20617;-87
2023/10/10 01:52:21;;;;;;;15.73;8.33;;;;;;;13.92;96.82;98639.94;4195438;28;20716;-87
2023/10/10 01:54:40;;;;;;;12.20;7.03;;;;;;;13.89;96.86;98634.91;4183061;28;20672;-87
2023/10/10 01:56:44;;;;;;;18.23;8.73;;;;;;;13.87;96.42;98647.28;4185103;28;21366;-88
2023/10/10 01:58:53;;;;;;;15.63;7.30;;;;;;;13.87;97.67;98647.28;4196488;28;20630;-87
2023/10/10 02:00:56;;;;;;;13.90;7.50;;;;;;;13.86;97.19;98650.88;4211217;28;20690;-87
2023/10/10 02:03:01;;;;;;;17.50;7.20;;;;;;;13.85;97.25;98641.31;4203338;28;21103;-87
2023/10/10 02:05:11;;;;;;;19.23;7.50;;;;;;;13.85;97.37;98649.19;4197768;28;20644;-87
2023/10/10 02:07:21;;;;;;;17.80;8.13;;;;;;;13.84;97.13;98637.00;4188189;28;21008;-87
2023/10/10 02:09:33;;;;;;;16.93;7.57;;;;;;;13.84;97.36;98646.69;4219516;28;21207;-87
2023/10/10 02:11:36;;;;;;;15.30;8.13;;;;;;;13.81;97.99;98639.84;4191649;28;20614;-87
2023/10/10 02:13:44;;;;;;;13.93;7.30;;;;;;;13.81;97.80;98642.47;4194297;28;20629;-87
2023/10/10 02:15:47;;;;;;;17.70;8.67;;;;;;;13.77;97.04;98638.44;4210859;28;20633;-88
2023/10/10 02:17:54;;;;;;;14.40;7.40;;;;;;;13.76;97.47;98639.38;4214091;28;21073;-88
2023/10/10 02:20:17;;;;;;;14.30;7.80;;;;;;;13.74;98.11;98637.78;4197432;28;20629;-87
2023/10/10 02:22:23;;;;;;;15.77;6.50;;;;;;;13.75;97.60;98642.91;4213832;28;20624;-87
2023/10/10 02:24:38;;;;;;;13.40;6.87;;;;;;;13.74;97.56;98649.13;4195316;28;20623;-87
2023/10/10 02:26:40;;;;;;;15.20;8.00;;;;;;;13.74;97.78;98646.50;4198576;28;20866;-87
2023/10/10 02:28:49;;;;;;;13.47;7.40;;;;;;;13.75;97.52;98647.34;4197687;28;20660;-87
2023/10/10 02:30:52;;;;;;;16.27;7.40;;;;;;;13.76;97.65;98649.03;4191019;28;20836;-87
2023/10/10 02:32:57;;;;;;;11.80;6.80;;;;;;;13.75;97.56;98649.97;4190179;28;21221;-87
2023/10/10 02:35:16;;;;;;;12.43;6.47;;;;;;;13.73;97.29;98655.31;4198698;28;20649;-87
2023/10/10 02:37:41;;;;;;;13.00;6.67;;;;;;;13.71;97.19;98649.34;4189547;28;20642;-87
2023/10/10 02:39:56;;;;;;;15.03;7.10;;;;;;;13.67;97.86;98661.00;4220462;28;20622;-87
2023/10/10 02:41:59;;;;;;;16.07;8.03;;;;;;;13.68;97.51;98657.44;4204319;28;20634;-87
2023/10/10 02:44:09;;;;;;;14.43;8.00;;;;;;;13.67;97.24;98658.38;4214285;28;20629;-87
2023/10/10 02:46:17;;;;;;;15.97;6.80;;;;;;;13.67;97.48;98663.63;4213292;28;20662;-87
2023/10/10 02:48:23;;;;;;;14.07;7.23;;;;;;;13.67;97.51;98661.00;4201655;28;20686;-87
2023/10/10 02:50:41;;;;;;;17.40;7.97;;;;;;;13.64;97.72;98659.56;4189738;28;20678;-87
2023/10/10 02:52:46;;;;;;;21.70;8.03;;;;;;;13.65;97.86;98660.28;4205552;28;20740;-87
2023/10/10 02:54:53;;;;;;;17.23;7.63;;;;;;;13.63;97.90;98650.00;4203830;28;20665;-87
2023/10/10 02:57:26;;;;;;;13.67;6.43;;;;;;;13.62;97.45;98651.81;4187903;28;20666;-87
2023/10/10 02:59:31;;;;;;;12.00;7.37;;;;;;;13.62;97.73;98658.81;4198199;28;20698;-87
2023/10/10 03:01:56;;;;;;;17.20;7.63;;;;;;;13.60;97.58;98652.84;4218442;28;20677;-87
2023/10/10 03:04:03;;;;;;;12.20;6.97;;;;;;;13.60;98.13;98652.84;4181395;28;20700;-87
2023/10/10 03:06:07;;;;;;;18.83;7.10;;;;;;;13.59;97.72;98654.66;4216765;28;20754;-87
2023/10/10 03:08:15;;;;;;;16.67;7.17;;;;;;;13.58;97.57;98644.28;4182814;28;20649;-87
2023/10/10 03:10:38;;;;;;;12.63;7.47;;;;;;;13.56;97.41;98652.25;4189799;28;21015;-87
2023/10/10 03:12:48;;;;;;;18.40;7.63;;;;;;;13.53;97.02;98648.97;4199930;28;20707;-87
2023/10/10 03:14:54;;;;;;;14.40;8.07;;;;;;;13.47;97.06;98652.03;4184220;28;20678;-87
2023/10/10 03:17:05;;;;;;;13.53;6.73;;;;;;;13.44;97.07;98649.63;4214497;28;20672;-87
2023/10/10 03:19:19;;;;;;;13.37;6.87;;;;;;;13.40;96.93;98650.81;4216285;28;20679;-87
2023/10/10 03:21:44;;;;;;;12.53;7.03;;;;;;;13.39;97.00;98644.72;4208847;28;20632;-87
2023/10/10 03:23:54;;;;;;;13.20;7.63;;;;;;;13.39;96.88;98643.88;4188158;28;20621;-87
2023/10/10 03:26:05;;;;;;;14.53;7.03;;;;;;;13.37;96.87;98645.78;4190393;28;20744;-87
2023/10/10 03:28:18;;;;;;;13.43;6.73;;;;;;;13.35;96.69;98645.91;4216459;27;21020;-87
2023/10/10 03:30:34;;;;;;;16.20;7.70;;;;;;;13.35;97.57;98642.41;4212244;28;20651;-87
2023/10/10 03:32:59;;;;;;;14.23;7.77;;;;;;;13.33;97.22;98642.53;4197984;28;20627;-86
2023/10/10 03:35:13;;;;;;;16.53;7.67;;;;;;;13.30;97.79;98634.06;4215507;28;20991;-87
2023/10/10 03:37:21;;;;;;;13.30;8.07;;;;;;;13.27;97.68;98639.50;4198977;28;20673;-87
2023/10/10 03:39:41;;;;;;;11.00;7.47;;;;;;;13.25;97.13;98636.16;4193141;28;20625;-87
2023/10/10 05:25:32;;;;;;;16.17;6.60;;;;;;;12.38;98.19;98657.06;4215138;28;20627;-87
2023/10/10 05:27:41;;;;;;;13.33;6.87;;;;;;;12.42;96.82;98649.88;4215619;27;21027;-87
2023/10/10 05:29:44;;;;;;;13.10;6.20;;;;;;;12.42;96.78;98652.50;4218243;28;20623;-87
2023/10/10 05:31:47;;;;;;;13.63;7.27;;;;;;;12.39;97.83;98648.28;4200481;28;20633;-87
2023/10/10 05:33:50;;;;;;;14.40;7.47;;;;;;;12.38;95.86;98648.38;4205568;28;20646;-87
2023/10/10 05:36:06;;;;;;;12.10;6.53;;;;;;;12.34;95.19;98642.53;4219084;28;20630;-87
2023/10/10 05:38:09;;;;;;;13.60;6.50;;;;;;;12.32;97.33;98654.84;4196399;28;21057;-87
2023/10/10 05:40:13;;;;;;;11.43;6.13;;;;;;;12.28;97.46;98656.03;4217227;28;20624;-87
2023/10/10 05:42:20;;;;;;;14.73;6.80;;;;;;;12.27;95.52;98659.56;4184490;28;20632;-87
2023/10/10 05:44:24;;;;;;;13.03;5.90;;;;;;;12.22;96.20;98665.19;4218559;28;20631;-87
2023/10/10 05:46:27;;;;;;;10.07;6.67;;;;;;;12.19;94.29;98655.75;4180053;28;21048;-87
2023/10/10 05:48:31;;;;;;;12.03;6.70;;;;;;;12.18;96.27;98653.25;4200474;28;20722;-87
2023/10/10 05:50:34;;;;;;;13.37;6.70;;;;;;;12.17;94.49;98660.25;4195574;28;20620;-87
2023/10/10 05:52:38;;;;;;;11.30;6.37;;;;;;;12.22;94.87;98659.97;4198615;28;20627;-87
2023/10/10 05:54:41;;;;;;;12.17;6.93;;;;;;;12.24;96.65;98659.75;4200731;28;20623;-87
2023/10/10 05:56:46;;;;;;;12.90;6.47;;;;;;;12.27;96.01;98659.56;4193778;28;20652;-87
2023/10/10 05:58:52;;;;;;;14.07;6.67;;;;;;;12.32;95.78;98667.09;4205119;28;21227;-86
2023/10/10 06:00:58;;;;;;;9.43;6.40;;;;;;;12.35;96.53;98667.72;4185571;28;20668;-88
2023/10/10 06:03:01;;;;;;;17.07;6.77;;;;;;;12.41;97.73;98671.72;4216228;28;20622;-88
2023/10/10 06:05:06;;;;;;;11.60;6.37;;;;;;;12.40;96.90;98673.53;4191280;28;21193;-87
2023/10/10 06:07:10;;;;;;;10.03;5.60;;;;;;;12.45;97.55;98678.44;4200739;28;20652;-88
2023/10/10 06:09:18;;;;;;;11.50;6.30;;;;;;;12.51;97.00;98672.78;4217518;28;20790;-88
2023/10/10 06:11:22;;;;;;;15.67;7.23;;;;;;;12.55;95.26;98671.66;4196413;28;20655;-88
2023/10/10 06:13:25;;;;;;;16.50;8.00;;;;;;;12.60;97.83;98677.41;4186639;28;21370;-87
2023/10/10 06:15:29;;;;;;;11.50;6.53;;;;;;;12.70;97.32;98684.53;4178651;28;20698;-88
2023/10/10 06:17:34;;;;;;;15.90;7.10;;;;;;;12.79;97.08;98670.81;4191102;28;20678;-88
2023/10/10 06:19:37;;;;;;;11.97;7.10;;;;;;;12.86;97.94;98682.59;4195004;28;20730;-89
2023/10/10 06:21:42;;;;;;;12.53;6.60;;;;;;;12.92;96.63;98685.63;4210662;28;20643;-90
2023/10/10 06:23:49;;;;;;;17.53;7.17;;;;;;;12.96;97.31;98689.72;4217748;28;20618;-89
2023/10/10 06:25:58;;;;;;;12.67;7.13;;;;;;;13.03;97.89;98684.91;4205354;28;20619;-90
2023/10/10 06:28:05;;;;;;;13.03;6.90;;;;;;;13.07;97.16;98684.59;4217493;28;20737;-90
2023/10/10 06:30:17;;;;;;;15.70;8.33;;;;;;;13.13;97.79;98696.44;4196832;28;20658;-90
2023/10/10 06:32:21;;;;;;;19.07;8.97;;;;;;;13.19;97.18;98694.22;4199697;28;20632;-90
2023/10/10 06:34:25;;;;;;;13.53;7.03;;;;;;;13.27;97.95;98691.91;4197770;28;20629;-90
2023/10/10 06:36:37;;;;;;;13.13;7.90;;;;;;;13.37;97.30;98699.00;4190545;28;20676;-89
2023/10/10 06:38:41;;;;;;;14.60;9.23;;;;;;;13.47;96.38;98692.19;4198065;28;20624;-90
2023/10/10 06:40:53;;;;;;;21.40;10.10;;;;;;;13.61;96.75;98704.34;4216741;28;20635;-89
2023/10/10 06:42:56;;;;;;;14.70;8.50;;;;;;;13.71;96.05;98709.66;4202059;28;20657;-90
2023/10/10 06:45:09;;;;;;;14.40;8.30;;;;;;;13.81;95.14;98705.41;4184461;28;20627;-89
2023/10/10 06:47:13;;;;;;;18.40;8.37;;;;;;;13.96;95.92;98708.72;4199262;28;20656;-90
2023/10/10 06:49:20;;;;;;;16.10;8.10;;;;;;;14.07;95.01;98708.81;4181363;28;20698;-87
2023/10/10 06:51:24;;;;;;;17.97;7.97;;;;;;;14.13;94.16;98717.06;4196968;28;20768;-88
2023/10/10 06:53:35;;;;;;;13.30;7.07;;;;;;;14.20;93.92;98713.91;4183403;28;20628;-87
2023/10/10 06:55:38;;;;;;;13.60;7.70;;;;;;;14.26;94.82;98715.25;4178902;28;20636;-88
2023/10/10 06:57:44;;;;;;;11.70;6.97;;;;;;;14.35;94.54;98717.19;4198292;28;21045;-88
2023/10/10 06:59:50;;;;;;;16.07;7.67;;;;;;;14.38;94.55;98712.56;4199544;28;20640;-88
2023/10/10 07:01:54;;;;;;;16.80;7.67;;;;;;;14.40;93.41;98701.94;4193392;28;20625;-87
2023/10/10 07:04:03;;;;;;;13.10;8.27;;;;;;;14.42;93.91;98711.38;4221398;28;20611;-88
2023/10/10 07:06:08;;;;;;;16.40;7.87;;;;;;;14.41;94.29;98711.50;4215895;28;20627;-88
2023/10/10 07:08:13;;;;;;;12.73;7.13;;;;;;;14.45;94.82;98705.06;4186696;28;20658;-88
2023/10/10 07:10:25;;;;;;;19.20;8.03;;;;;;;14.56;94.00;98707.75;4180766;28;20698;-88
2023/10/10 07:12:29;;;;;;;14.23;7.30;;;;;;;14.73;95.02;98714.25;4201293;28;20625;-88
2023/10/10 07:14:40;;;;;;;13.90;7.67;;;;;;;14.85;93.55;98710.69;4214595;28;20640;-88
2023/10/10 07:16:43;;;;;;;14.23;7.87;;;;;;;15.01;92.86;98713.00;4217950;28;20736;-88
2023/10/10 07:18:56;;;;;;;14.57;8.10;;;;;;;15.13;94.03;98711.09;4190373;28;20637;-87
2023/10/10 07:21:07;;;;;;;15.80;6.80;;;;;;;15.28;93.28;98715.22;4185979;28;20683;-88
2023/10/10 07:23:10;;;;;;;15.70;7.57;;;;;;;15.42;92.52;98717.59;4217218;28;20633;-88
2023/10/10 07:25:31;;;;;;;14.77;8.40;;;;;;;15.56;92.84;98718.22;4199475;28;20623;-88
2023/10/10 07:27:35;;;;;;;10.23;6.27;;;;;;;15.62;89.53;98717.75;4218758;28;20726;-88
2023/10/10 07:32:16;;;;;;;12.00;7.30;;;;;;;15.91;90.19;98724.16;4176802;28;20644;-88
2023/10/10 07:34:35;;;;;;;16.67;7.27;;;;;;;16.09;92.50;98727.97;4216136;28;20737;-88
2023/10/10 07:36:39;;;;;;;13.43;6.87;;;;;;;16.30;91.35;98723.66;4196988;28;20625;-88
2023/10/10 07:38:43;;;;;;;15.37;6.90;;;;;;;16.44;91.68;98739.16;4221964;28;20945;-88
2023/10/10 07:40:46;;;;;;;12.27;6.90;;;;;;;16.54;90.52;98735.66;4203703;28;20667;-88
2023/10/10 07:42:58;;;;;;;12.37;7.13;;;;;;;16.64;91.61;98729.50;4190212;28;20623;-88
2023/10/10 07:45:03;;;;;;;13.07;7.60;;;;;;;16.71;88.36;98727.19;4200601;28;20650;-89
2023/10/10 07:47:19;;;;;;;13.53;7.00;;;;;;;16.79;89.31;98727.38;4202146;28;20680;-89
2023/10/10 07:49:22;;;;;;;12.97;7.23;;;;;;;16.84;87.92;98723.41;4204847;28;20619;-89
2023/10/10 07:51:28;;;;;;;16.40;7.90;;;;;;;16.82;87.36;98724.47;4204210;28;20638;-89
2023/10/10 07:53:34;;;;;;;18.20;8.30;;;;;;;16.87;89.59;98732.84;4199632;28;21123;-89
2023/10/10 07:55:50;;;;;;;10.47;6.53;;;;;;;16.87;89.40;98733.69;4204148;28;20687;-89
2023/10/10 07:57:59;;;;;;;13.67;7.10;;;;;;;16.88;91.21;98745.06;4203393;28;20654;-89
2023/10/10 08:00:06;;;;;;;15.93;6.53;;;;;;;16.98;88.69;98740.72;4199961;28;20627;-89
2023/10/10 08:02:24;;;;;;;16.73;6.43;;;;;;;17.10;89.33;98738.69;4203151;28;20629;-89
2023/10/10 08:04:28;;;;;;;13.17;6.60;;;;;;;17.25;88.00;98737.44;4199239;28;20651;-88
2023/10/10 08:06:33;;;;;;;14.40;6.60;;;;;;;17.44;89.05;98745.47;4202637;28;20633;-90
2023/10/10 08:08:40;;;;;;;14.90;7.43;;;;;;;17.62;88.88;98742.09;4196942;28;20658;-89
2023/10/10 08:10:49;;;;;;;13.40;7.40;;;;;;;17.76;87.56;98747.00;4197296;28;20631;-90
2023/10/10 08:12:52;;;;;;;15.50;7.00;;;;;;;17.82;87.57;98741.19;4199370;28;20737;-89
2023/10/10 08:14:59;;;;;;;15.30;6.93;;;;;;;17.88;87.87;98731.91;4188673;28;20671;-89
2023/10/10 08:17:04;;;;;;;12.43;6.83;;;;;;;17.96;87.21;98744.28;4207071;28;21230;-90
2023/10/10 08:19:15;;;;;;;10.40;6.47;;;;;;;17.91;86.92;98740.41;4195355;28;20626;-88
2023/10/10 08:21:22;;;;;;;17.80;7.13;;;;;;;17.89;87.15;98738.84;4202712;28;24719;-90
2023/10/10 08:23:25;;;;;;;13.27;6.37;;;;;;;17.93;86.60;98738.44;4192150;28;21223;-89
2023/10/10 08:25:29;;;;;;;11.43;6.50;;;;;;;18.04;86.91;98746.25;4200701;28;21505;-90
2023/10/10 08:27:34;;;;;;;13.27;7.10;;;;;;;18.15;87.43;98743.56;4188574;28;20636;-89
2023/10/10 08:29:38;;;;;;;13.03;6.57;;;;;;;18.27;87.14;98747.75;4192717;28;21120;-90
2023/10/10 08:31:43;;;;;;;13.47;6.57;;;;;;;18.36;85.43;98746.91;4214443;28;20615;-90
2023/10/10 08:33:47;;;;;;;13.60;6.20;;;;;;;18.42;84.71;98747.22;4217807;28;21237;-90
2023/10/10 08:35:50;;;;;;;16.37;7.03;;;;;;;18.55;85.35;98739.84;4191750;28;20616;-90
2023/10/10 08:37:54;;;;;;;15.00;6.60;;;;;;;18.64;84.29;98747.81;4197647;28;20641;-90
2023/10/10 08:40:14;;;;;;;14.03;6.40;;;;;;;18.70;83.23;98744.63;4187258;28;21050;-90
2023/10/10 08:42:22;;;;;;;12.47;6.10;;;;;;;18.83;83.34;98747.81;4219382;28;20655;-89
2023/10/10 08:44:31;;;;;;;13.67;6.13;;;;;;;19.03;82.89;98749.50;4206510;28;20751;-90
2023/10/10 08:46:40;;;;;;;21.53;7.80;;;;;;;19.24;84.70;98742.22;4183368;28;20626;-90
2023/10/10 08:48:44;;;;;;;17.47;6.83;;;;;;;19.44;83.28;98750.00;4201574;28;20660;-89
2023/10/10 08:50:48;;;;;;;13.13;6.23;;;;;;;19.56;85.24;98747.03;4198188;28;21019;-89
2023/10/10 08:52:52;;;;;;;14.43;8.20;;;;;;;19.71;83.38;98748.25;4204028;28;21236;-90
2023/10/10 08:54:55;;;;;;;12.60;6.40;;;;;;;19.88;82.15;98755.44;4214020;28;21089;-90
2023/10/10 08:57:03;;;;;;;13.00;6.07;;;;;;;19.87;81.76;98749.31;4200056;28;20629;-89
2023/10/10 08:59:08;;;;;;;12.00;6.60;;;;;;;19.86;81.71;98752.94;4199973;28;20628;-89
2023/10/10 09:01:13;;;;;;;11.60;5.90;;;;;;;19.95;80.75;98751.22;4200369;28;21201;-90
2023/10/10 09:03:17;;;;;;;11.00;6.50;;;;;;;20.02;81.37;98744.34;4192287;28;20628;-90
2023/10/10 09:05:23;;;;;;;14.40;6.47;;;;;;;20.08;83.18;98741.13;4199848;28;20705;-90
2023/10/10 09:07:28;;;;;;;17.63;7.70;;;;;;;20.17;82.60;98748.19;4199346;28;21328;-90
2023/10/10 09:09:33;;;;;;;13.77;5.37;;;;;;;20.26;80.56;98747.31;4217413;28;21206;-88
2023/10/10 09:11:37;;;;;;;15.17;6.37;;;;;;;20.25;80.62;98753.56;4189344;28;20653;-90
2023/10/10 09:13:54;;;;;;;13.30;5.97;;;;;;;20.32;79.41;98752.00;4215881;28;21204;-90
2023/10/10 09:15:56;;;;;;;16.47;7.07;;;;;;;20.39;79.36;98744.13;4187592;28;21016;-90
2023/10/10 09:18:15;;;;;;;14.30;5.47;;;;;;;20.52;78.94;98741.13;4194362;28;20665;-90
2023/10/10 09:20:23;;;;;;;17.13;6.70;;;;;;;20.69;80.45;98738.53;4218677;28;21006;-90
2023/10/10 09:22:34;;;;;;;14.67;6.07;;;;;;;20.86;80.79;98746.47;4196902;28;20642;-89
2023/10/10 09:24:38;;;;;;;15.50;5.87;;;;;;;21.02;80.35;98746.63;4182898;28;20635;-90
2023/10/10 09:26:42;;;;;;;13.43;6.23;;;;;;;21.13;78.60;98738.41;4181099;28;20617;-91
2023/10/10 09:28:49;;;;;;;13.57;6.10;;;;;;;21.22;78.82;98741.97;4187338;28;20648;-89
2023/10/10 09:30:59;;;;;;;10.90;6.57;;;;;;;21.30;77.72;98746.34;4202288;28;20693;-90
2023/10/10 09:33:13;;;;;;;19.50;6.97;;;;;;;21.40;77.66;98746.25;4203107;28;20726;-90
2023/10/10 09:35:20;;;;;;;14.70;6.20;;;;;;;21.54;78.31;98745.69;4213113;28;21058;-91
2023/10/10 09:37:30;;;;;;;14.17;5.70;;;;;;;21.60;77.13;98743.25;4189069;28;20619;-89
2023/10/10 09:39:36;;;;;;;29.83;19.07;;;;;;;21.70;77.74;98743.97;4180013;28;20632;-90
2023/10/10 09:42:00;;;;;;;13.13;5.43;;;;;;;21.75;76.75;98743.50;4213245;28;21499;-90
2023/10/10 09:46:52;;;;;;;16.03;5.83;;;;;;;21.90;76.30;98735.59;4172180;28;20632;-91
2023/10/10 09:53:40;;;;;;;12.73;5.80;;;;;;;22.10;74.84;98737.03;4208528;28;20643;-91
2023/10/10 09:55:44;;;;;;;13.37;5.33;;;;;;;22.15;74.40;98733.91;4203310;28;20637;-90
2023/10/10 09:58:00;;;;;;;13.27;5.67;;;;;;;22.21;75.06;98731.47;4202560;28;21255;-90
2023/10/10 10:00:10;;;;;;;11.10;5.60;;;;;;;22.27;71.44;98734.31;4186466;28;20622;-90
2023/10/10 10:02:40;;;;;;;11.63;4.67;;;;;;;22.29;71.35;98734.13;4190007;28;21029;-90
2023/10/10 10:04:44;;;;;;;11.37;5.57;;;;;;;22.29;70.88;98739.47;4177233;28;20690;-91
2023/10/10 10:07:01;;;;;;;9.77;4.80;;;;;;;22.31;71.00;98738.31;4203208;28;20656;-90
2023/10/10 10:09:38;;;;;;;17.33;5.63;;;;;;;22.37;70.92;98734.16;4200913;28;21250;-90
2023/10/10 10:11:53;;;;;;;15.93;5.53;;;;;;;22.42;70.58;98743.31;4186093;28;20705;-90
2023/10/10 10:14:00;;;;;;;13.47;5.80;;;;;;;22.47;70.21;98729.53;4183063;28;21259;-90
2023/10/10 10:16:25;;;;;;;9.73;5.67;;;;;;;22.51;69.97;98734.38;4195585;28;20634;-89
2023/10/10 10:18:28;;;;;;;23.07;5.47;;;;;;;22.58;70.32;98730.06;4218124;28;20689;-90
2023/10/10 10:20:43;;;;;;;14.20;5.07;;;;;;;22.62;70.61;98734.06;4197031;28;20654;-90
2023/10/10 10:22:52;;;;;;;13.03;5.43;;;;;;;22.69;71.63;98740.41;4215413;28;20632;-90
2023/10/10 10:25:21;;;;;;;9.77;5.30;;;;;;;22.72;69.33;98737.41;4202418;28;20637;-90
2023/10/10 10:27:31;;;;;;;12.03;5.07;;;;;;;22.76;70.77;98736.06;4189400;28;20633;-90
2023/10/10 10:29:42;;;;;;;19.80;6.80;;;;;;;22.81;69.92;98733.75;4204359;28;20652;-90
2023/10/10 10:31:51;;;;;;;14.23;5.60;;;;;;;22.80;67.08;98737.41;4187878;28;20644;-90
2023/10/10 10:34:10;;;;;;;19.60;6.00;;;;;;;22.74;66.33;98732.75;4198974;28;20620;-90
2023/10/10 10:36:16;;;;;;;10.97;5.33;;;;;;;22.77;67.84;98729.75;4208160;28;20629;-90
2023/10/10 10:38:24;;;;;;;9.50;4.90;;;;;;;22.80;69.25;98732.91;4201236;28;20633;-90
2023/10/10 10:40:42;;;;;;;8.33;4.87;;;;;;;22.85;68.80;98724.44;4181604;28;20657;-90
2023/10/10 10:42:48;;;;;;;10.73;5.13;;;;;;;22.87;69.32;98725.94;4184611;28;20623;-90
2023/10/10 10:44:54;;;;;;;11.17;4.63;;;;;;;22.87;69.66;98725.13;4192215;28;20663;-90
2023/10/10 10:46:58;;;;;;;8.63;4.30;;;;;;;22.88;68.53;98724.97;4199371;28;20723;-90
2023/10/10 10:49:07;;;;;;;11.90;5.40;;;;;;;22.89;68.10;98721.28;4195708;28;21014;-90
2023/10/10 10:51:25;;;;;;;11.30;5.00;;;;;;;22.92;68.36;98717.47;4205927;28;20635;-90
2023/10/10 10:53:38;;;;;;;12.63;4.70;;;;;;;22.99;69.53;98721.16;4203438;28;20679;-89
2023/10/10 10:55:52;;;;;;;12.77;5.70;;;;;;;22.94;68.19;98716.34;4204413;28;20657;-90
2023/10/10 10:58:07;;;;;;;9.70;5.17;;;;;;;22.85;68.16;98717.31;4186480;28;20657;-89
2023/10/10 11:00:20;;;;;;;11.20;4.90;;;;;;;22.84;67.63;98706.81;4212354;28;20621;-89
2023/10/10 11:02:30;;;;;;;12.87;4.83;;;;;;;22.84;68.09;98712.97;4199274;28;20625;-89
2023/10/10 11:04:44;;;;;;;10.40;5.10;;;;;;;22.81;67.60;98702.66;4185865;28;21135;-90
2023/10/10 11:06:51;;;;;;;10.63;4.60;;;;;;;22.81;68.20;98707.16;4186610;28;21025;-89
2023/10/10 11:09:23;;;;;;;8.40;4.80;;;;;;;22.83;67.58;98699.81;4203287;28;20630;-90
2023/10/10 11:11:36;;;;;;;10.63;4.97;;;;;;;22.82;67.51;98698.16;4220259;28;21003;-89
2023/10/10 11:13:40;;;;;;;13.70;5.30;;;;;;;22.79;65.87;98688.69;4187044;28;20638;-87
2023/10/10 11:15:45;;;;;;;10.37;5.10;;;;;;;22.85;67.19;98692.50;4197810;28;21443;-87
2023/10/10 11:18:07;;;;;;;14.10;5.27;;;;;;;22.88;66.20;98681.53;4214646;28;20622;-87
2023/10/10 11:22:40;;;;;;;12.97;5.70;;;;;;;22.99;66.50;98676.75;4215141;28;21206;-87
2023/10/10 11:24:57;;;;;;;15.83;4.70;;;;;;;23.09;67.17;98681.88;4217885;28;20688;-88
2023/10/10 11:27:21;;;;;;;10.20;4.40;;;;;;;23.18;67.09;98676.38;4215605;28;20744;-87
2023/10/10 11:29:28;;;;;;;15.60;5.07;;;;;;;23.22;67.01;98673.22;4202326;28;21004;-87
2023/10/10 11:31:35;;;;;;;10.90;4.90;;;;;;;23.24;66.25;98668.56;4197437;28;20707;-87
2023/10/10 11:33:48;;;;;;;11.90;4.80;;;;;;;23.26;66.64;98661.22;4205651;28;20731;-88
2023/10/10 11:36:02;;;;;;;11.03;5.07;;;;;;;23.31;67.25;98663.38;4206076;28;20635;-88
2023/10/10 11:38:09;;;;;;;11.63;5.40;;;;;;;23.33;67.57;98664.03;4205623;28;20632;-88
2023/10/10 11:40:31;;;;;;;10.70;5.07;;;;;;;23.33;67.29;98651.56;4216594;28;20608;-88
2023/10/10 11:42:35;;;;;;;11.53;4.50;;;;;;;23.33;67.15;98656.91;4203716;28;20629;-88
2023/10/10 11:44:41;;;;;;;10.93;5.23;;;;;;;23.32;67.34;98659.72;4215890;28;20676;-88
2023/10/10 11:46:46;;;;;;;10.77;4.70;;;;;;;23.29;66.57;98644.09;4215046;28;20675;-88
2023/10/10 11:48:49;;;;;;;9.57;5.00;;;;;;;23.27;66.73;98649.59;4216185;28;20741;-88
2023/10/10 11:50:56;;;;;;;15.43;5.60;;;;;;;23.24;67.17;98641.94;4205784;28;20649;-87
2023/10/10 11:53:01;;;;;;;12.53;4.77;;;;;;;23.20;66.84;98629.94;4203595;28;20655;-88